sensor_id;sensor_type;location;lat;lon;timestamp;pressure;altitude;pressure_sealevel;temperature;humidity
19736;BME280;32064;49.310;8.646;2023-02-03T00:01:03;101822.28;;;10.55;71.90
19736;BME280;32064;49.310;8.646;2023-02-03T00:03:31;101821.53;;;10.53;72.98
19736;BME280;32064;49.310;8.646;2023-02-03T00:05:57;101812.84;;;10.51;71.59
19736;BME280;32064;49.310;8.646;2023-02-03T00:08:24;101816.47;;;10.49;73.05
19736;BME280;32064;49.310;8.646;2023-02-03T00:10:49;101819.78;;;10.52;72.24
19736;BME280;32064;49.310;8.646;2023-02-03T00:13:15;101825.19;;;10.49;73.52
19736;BME280;32064;49.310;8.646;2023-02-03T00:15:43;101834.53;;;10.56;72.71
19736;BME280;32064;49.310;8.646;2023-02-03T00:18:09;101829.25;;;10.56;72.80
19736;BME280;32064;49.310;8.646;2023-02-03T00:20:34;101837.91;;;10.59;73.11
19736;BME280;32064;49.310;8.646;2023-02-03T00:23:07;101833.69;;;10.56;72.79
19736;BME280;32064;49.310;8.646;2023-02-03T00:25:33;101835.22;;;10.60;72.78
19736;BME280;32064;49.310;8.646;2023-02-03T00:27:59;101836.03;;;10.62;72.55
19736;BME280;32064;49.310;8.646;2023-02-03T00:30:24;101832.44;;;10.63;71.98
19736;BME280;32064;49.310;8.646;2023-02-03T00:32:50;101828.81;;;10.66;73.96
19736;BME280;32064;49.310;8.646;2023-02-03T00:35:15;101827.13;;;10.65;72.56
19736;BME280;32064;49.310;8.646;2023-02-03T00:37:40;101823.84;;;10.60;74.11
19736;BME280;32064;49.310;8.646;2023-02-03T00:40:06;101825.00;;;10.54;73.01
19736;BME280;32064;49.310;8.646;2023-02-03T00:42:35;101820.59;;;10.54;74.32
19736;BME280;32064;49.310;8.646;2023-02-03T00:45:01;101823.34;;;10.51;73.23
19736;BME280;32064;49.310;8.646;2023-02-03T00:47:26;101819.75;;;10.54;73.51
19736;BME280;32064;49.310;8.646;2023-02-03T00:49:52;101813.63;;;10.53;73.54
19736;BME280;32064;49.310;8.646;2023-02-03T00:52:17;101797.84;;;10.53;74.26
19736;BME280;32064;49.310;8.646;2023-02-03T00:54:43;101796.69;;;10.59;74.54
19736;BME280;32064;49.310;8.646;2023-02-03T00:57:08;101789.22;;;10.50;74.27
19736;BME280;32064;49.310;8.646;2023-02-03T00:59:33;101784.09;;;10.47;73.42
19736;BME280;32064;49.310;8.646;2023-02-03T01:01:59;101796.91;;;10.54;73.65
19736;BME280;32064;49.310;8.646;2023-02-03T01:04:24;101793.28;;;10.57;74.76
19736;BME280;32064;49.310;8.646;2023-02-03T01:06:52;101788.81;;;10.59;73.21
19736;BME280;32064;49.310;8.646;2023-02-03T01:09:22;101793.97;;;10.61;74.52
19736;BME280;32064;49.310;8.646;2023-02-03T01:11:47;101806.50;;;10.55;74.43
19736;BME280;32064;49.310;8.646;2023-02-03T01:14:13;101806.22;;;10.62;74.98
19736;BME280;32064;49.310;8.646;2023-02-03T01:16:38;101820.22;;;10.62;73.07
19736;BME280;32064;49.310;8.646;2023-02-03T01:19:04;101821.88;;;10.65;75.18
19736;BME280;32064;49.310;8.646;2023-02-03T01:21:31;101829.81;;;10.63;73.62
19736;BME280;32064;49.310;8.646;2023-02-03T01:23:57;101831.59;;;10.63;74.57
19736;BME280;32064;49.310;8.646;2023-02-03T01:26:23;101823.72;;;10.63;73.57
19736;BME280;32064;49.310;8.646;2023-02-03T01:28:51;101820.22;;;10.62;73.69
19736;BME280;32064;49.310;8.646;2023-02-03T01:31:25;101811.19;;;10.68;73.84
19736;BME280;32064;49.310;8.646;2023-02-03T01:33:52;101798.78;;;10.70;73.89
19736;BME280;32064;49.310;8.646;2023-02-03T01:36:19;101799.81;;;10.67;74.10
19736;BME280;32064;49.310;8.646;2023-02-03T01:38:45;101777.88;;;10.67;74.33
19736;BME280;32064;49.310;8.646;2023-02-03T01:41:19;101764.03;;;10.63;74.20
19736;BME280;32064;49.310;8.646;2023-02-03T01:43:47;101751.31;;;10.54;74.94
19736;BME280;32064;49.310;8.646;2023-02-03T01:46:48;101740.25;;;10.47;73.88
19736;BME280;32064;49.310;8.646;2023-02-03T01:49:24;101737.03;;;10.60;75.22
19736;BME280;32064;49.310;8.646;2023-02-03T01:51:51;101740.72;;;10.55;73.61
19736;BME280;32064;49.310;8.646;2023-02-03T01:54:22;101739.94;;;10.53;74.99
19736;BME280;32064;49.310;8.646;2023-02-03T01:56:53;101728.94;;;10.45;73.89
19736;BME280;32064;49.310;8.646;2023-02-03T01:59:20;101739.16;;;10.51;73.93
19736;BME280;32064;49.310;8.646;2023-02-03T02:01:46;101747.25;;;10.47;75.59
19736;BME280;32064;49.310;8.646;2023-02-03T02:04:12;101728.84;;;10.47;74.21
19736;BME280;32064;49.310;8.646;2023-02-03T02:06:38;101722.69;;;10.48;75.74
19736;BME280;32064;49.310;8.646;2023-02-03T02:09:03;101710.38;;;10.48;74.72
19736;BME280;32064;49.310;8.646;2023-02-03T02:11:29;101684.75;;;10.52;74.77
19736;BME280;32064;49.310;8.646;2023-02-03T02:13:59;101705.03;;;10.50;75.34
19736;BME280;32064;49.310;8.646;2023-02-03T02:16:48;101708.34;;;10.36;76.22
19736;BME280;32064;49.310;8.646;2023-02-03T02:22:29;101704.69;;;10.39;76.67
19736;BME280;32064;49.310;8.646;2023-02-03T02:36:27;101726.28;;;10.26;77.20
19736;BME280;32064;49.310;8.646;2023-02-03T02:39:09;101719.28;;;10.27;76.97
19736;BME280;32064;49.310;8.646;2023-02-03T02:47:01;101700.81;;;10.28;76.94
19736;BME280;32064;49.310;8.646;2023-02-03T02:49:43;101705.69;;;10.17;77.97
19736;BME280;32064;49.310;8.646;2023-02-03T02:52:13;101702.22;;;10.36;75.88
19736;BME280;32064;49.310;8.646;2023-02-03T02:54:43;101707.63;;;10.32;76.75
19736;BME280;32064;49.310;8.646;2023-02-03T02:57:12;101691.06;;;10.30;76.54
19736;BME280;32064;49.310;8.646;2023-02-03T02:59:39;101701.78;;;10.26;76.91
19736;BME280;32064;49.310;8.646;2023-02-03T03:02:04;101699.03;;;10.29;77.60
19736;BME280;32064;49.310;8.646;2023-02-03T03:04:31;101712.72;;;10.36;77.93
19736;BME280;32064;49.310;8.646;2023-02-03T03:09:35;101736.34;;;10.37;77.41
19736;BME280;32064;49.310;8.646;2023-02-03T03:12:07;101729.38;;;10.36;77.14
19736;BME280;32064;49.310;8.646;2023-02-03T03:14:36;101731.72;;;10.42;76.20
19736;BME280;32064;49.310;8.646;2023-02-03T03:17:06;101742.31;;;10.41;76.76
19736;BME280;32064;49.310;8.646;2023-02-03T03:19:36;101751.91;;;10.42;76.73
19736;BME280;32064;49.310;8.646;2023-02-03T03:22:05;101751.84;;;10.43;75.80
19736;BME280;32064;49.310;8.646;2023-02-03T03:24:40;101760.03;;;10.37;77.44
19736;BME280;32064;49.310;8.646;2023-02-03T03:27:12;101765.91;;;10.42;77.15
19736;BME280;32064;49.310;8.646;2023-02-03T03:30:01;101772.22;;;10.38;77.44
19736;BME280;32064;49.310;8.646;2023-02-03T03:32:28;101772.19;;;10.40;76.76
19736;BME280;32064;49.310;8.646;2023-02-03T03:34:57;101782.59;;;10.41;76.64
19736;BME280;32064;49.310;8.646;2023-02-03T03:37:33;101783.50;;;10.42;77.84
19736;BME280;32064;49.310;8.646;2023-02-03T03:40:05;101773.81;;;10.42;77.21
19736;BME280;32064;49.310;8.646;2023-02-03T03:42:53;101772.09;;;10.41;77.49
19736;BME280;32064;49.310;8.646;2023-02-03T03:45:29;101777.28;;;10.43;77.43
19736;BME280;32064;49.310;8.646;2023-02-03T03:48:12;101774.16;;;10.34;77.57
19736;BME280;32064;49.310;8.646;2023-02-03T03:50:45;101763.44;;;10.39;77.38
19736;BME280;32064;49.310;8.646;2023-02-03T03:53:14;101768.59;;;10.41;76.91
19736;BME280;32064;49.310;8.646;2023-02-03T03:55:42;101769.69;;;10.37;77.65
19736;BME280;32064;49.310;8.646;2023-02-03T03:58:13;101772.31;;;10.37;78.01
19736;BME280;32064;49.310;8.646;2023-02-03T04:00:40;101767.81;;;10.39;78.13
19736;BME280;32064;49.310;8.646;2023-02-03T04:03:22;101757.38;;;10.37;77.93
19736;BME280;32064;49.310;8.646;2023-02-03T04:05:49;101758.19;;;10.39;77.76
19736;BME280;32064;49.310;8.646;2023-02-03T04:08:14;101756.59;;;10.35;77.90
19736;BME280;32064;49.310;8.646;2023-02-03T04:10:41;101762.09;;;10.30;79.44
19736;BME280;32064;49.310;8.646;2023-02-03T04:13:08;101760.03;;;10.37;78.63
19736;BME280;32064;49.310;8.646;2023-02-03T04:15:33;101757.38;;;10.37;79.07
19736;BME280;32064;49.310;8.646;2023-02-03T04:17:59;101761.00;;;10.34;79.83
19736;BME280;32064;49.310;8.646;2023-02-03T04:20:28;101755.06;;;10.31;79.84
19736;BME280;32064;49.310;8.646;2023-02-03T04:22:54;101770.03;;;10.29;80.37
19736;BME280;32064;49.310;8.646;2023-02-03T04:25:20;101775.25;;;10.30;78.83
19736;BME280;32064;49.310;8.646;2023-02-03T04:27:45;101768.50;;;10.23;80.29
19736;BME280;32064;49.310;8.646;2023-02-03T04:30:11;101770.59;;;10.17;80.95
19736;BME280;32064;49.310;8.646;2023-02-03T04:32:37;101767.16;;;10.15;79.43
19736;BME280;32064;49.310;8.646;2023-02-03T04:35:04;101752.94;;;10.19;79.74
19736;BME280;32064;49.310;8.646;2023-02-03T04:37:30;101757.59;;;10.14;79.37
19736;BME280;32064;49.310;8.646;2023-02-03T04:39:56;101754.66;;;10.20;81.09
19736;BME280;32064;49.310;8.646;2023-02-03T04:42:22;101760.91;;;10.17;79.95
19736;BME280;32064;49.310;8.646;2023-02-03T04:44:47;101756.44;;;10.19;80.09
19736;BME280;32064;49.310;8.646;2023-02-03T04:47:13;101766.03;;;10.20;81.08
19736;BME280;32064;49.310;8.646;2023-02-03T04:49:39;101772.56;;;10.11;80.09
19736;BME280;32064;49.310;8.646;2023-02-03T04:52:05;101771.59;;;10.14;79.30
19736;BME280;32064;49.310;8.646;2023-02-03T04:54:30;101764.75;;;10.10;79.68
19736;BME280;32064;49.310;8.646;2023-02-03T04:56:56;101767.31;;;10.11;79.78
19736;BME280;32064;49.310;8.646;2023-02-03T04:59:21;101758.50;;;10.12;80.48
19736;BME280;32064;49.310;8.646;2023-02-03T05:01:47;101753.53;;;10.06;81.16
19736;BME280;32064;49.310;8.646;2023-02-03T05:04:12;101748.13;;;10.09;79.99
19736;BME280;32064;49.310;8.646;2023-02-03T05:06:37;101751.53;;;10.11;80.65
19736;BME280;32064;49.310;8.646;2023-02-03T05:09:03;101746.84;;;9.99;80.42
19736;BME280;32064;49.310;8.646;2023-02-03T05:11:29;101744.94;;;10.03;80.06
19736;BME280;32064;49.310;8.646;2023-02-03T05:13:54;101744.09;;;10.02;81.31
19736;BME280;32064;49.310;8.646;2023-02-03T05:16:20;101757.00;;;10.07;79.86
19736;BME280;32064;49.310;8.646;2023-02-03T05:18:45;101747.13;;;10.12;80.59
19736;BME280;32064;49.310;8.646;2023-02-03T05:21:11;101746.41;;;10.08;81.11
19736;BME280;32064;49.310;8.646;2023-02-03T05:23:36;101752.44;;;10.10;81.53
19736;BME280;32064;49.310;8.646;2023-02-03T05:26:02;101742.31;;;10.03;81.49
19736;BME280;32064;49.310;8.646;2023-02-03T05:28:28;101750.25;;;10.01;81.65
19736;BME280;32064;49.310;8.646;2023-02-03T05:30:53;101743.28;;;10.00;80.29
19736;BME280;32064;49.310;8.646;2023-02-03T05:33:18;101750.34;;;10.00;80.83
19736;BME280;32064;49.310;8.646;2023-02-03T05:35:44;101746.84;;;9.99;80.53
19736;BME280;32064;49.310;8.646;2023-02-03T05:38:09;101739.97;;;9.97;80.82
19736;BME280;32064;49.310;8.646;2023-02-03T05:40:34;101743.56;;;9.94;80.89
19736;BME280;32064;49.310;8.646;2023-02-03T05:43:19;101761.00;;;9.97;81.98
19736;BME280;32064;49.310;8.646;2023-02-03T05:45:44;101754.00;;;9.96;81.47
19736;BME280;32064;49.310;8.646;2023-02-03T05:48:09;101744.34;;;9.96;81.66
19736;BME280;32064;49.310;8.646;2023-02-03T05:50:36;101746.06;;;9.97;80.80
19736;BME280;32064;49.310;8.646;2023-02-03T05:53:03;101747.47;;;10.04;81.43
19736;BME280;32064;49.310;8.646;2023-02-03T05:55:29;101733.56;;;10.02;81.08
19736;BME280;32064;49.310;8.646;2023-02-03T05:57:55;101748.97;;;10.10;82.39
19736;BME280;32064;49.310;8.646;2023-02-03T06:00:22;101729.94;;;10.05;82.00
19736;BME280;32064;49.310;8.646;2023-02-03T06:02:55;101734.31;;;10.04;80.75
19736;BME280;32064;49.310;8.646;2023-02-03T06:05:21;101727.44;;;10.02;82.11
19736;BME280;32064;49.310;8.646;2023-02-03T06:07:48;101717.84;;;10.01;81.99
19736;BME280;32064;49.310;8.646;2023-02-03T06:10:14;101713.38;;;10.03;80.54
19736;BME280;32064;49.310;8.646;2023-02-03T06:12:40;101730.69;;;10.07;80.95
19736;BME280;32064;49.310;8.646;2023-02-03T06:15:06;101721.31;;;10.01;82.34
19736;BME280;32064;49.310;8.646;2023-02-03T06:17:31;101727.56;;;9.99;81.05
19736;BME280;32064;49.310;8.646;2023-02-03T06:19:56;101709.91;;;10.02;82.07
19736;BME280;32064;49.310;8.646;2023-02-03T06:22:22;101697.66;;;10.01;81.37
19736;BME280;32064;49.310;8.646;2023-02-03T06:24:48;101708.41;;;9.97;82.78
19736;BME280;32064;49.310;8.646;2023-02-03T06:27:14;101718.94;;;9.97;82.12
19736;BME280;32064;49.310;8.646;2023-02-03T06:29:41;101714.66;;;9.94;82.08
19736;BME280;32064;49.310;8.646;2023-02-03T06:32:07;101715.34;;;9.98;81.12
19736;BME280;32064;49.310;8.646;2023-02-03T06:34:32;101702.56;;;9.90;82.50
19736;BME280;32064;49.310;8.646;2023-02-03T06:36:58;101714.16;;;9.86;82.97
19736;BME280;32064;49.310;8.646;2023-02-03T06:39:23;101702.84;;;9.84;81.78
19736;BME280;32064;49.310;8.646;2023-02-03T06:41:49;101702.16;;;9.80;83.06
19736;BME280;32064;49.310;8.646;2023-02-03T06:44:16;101703.06;;;9.79;82.25
19736;BME280;32064;49.310;8.646;2023-02-03T06:46:42;101714.31;;;9.83;82.00
19736;BME280;32064;49.310;8.646;2023-02-03T06:49:07;101718.72;;;9.82;81.98
19736;BME280;32064;49.310;8.646;2023-02-03T06:51:32;101710.81;;;9.82;82.58
19736;BME280;32064;49.310;8.646;2023-02-03T06:53:58;101709.38;;;9.75;83.82
19736;BME280;32064;49.310;8.646;2023-02-03T06:56:24;101719.84;;;9.77;83.63
19736;BME280;32064;49.310;8.646;2023-02-03T06:58:49;101728.44;;;9.80;82.37
19736;BME280;32064;49.310;8.646;2023-02-03T07:01:14;101725.72;;;9.82;83.42
19736;BME280;32064;49.310;8.646;2023-02-03T07:03:40;101730.78;;;9.86;82.96
19736;BME280;32064;49.310;8.646;2023-02-03T07:06:05;101734.38;;;9.84;83.21
19736;BME280;32064;49.310;8.646;2023-02-03T07:08:31;101732.75;;;9.81;84.04
19736;BME280;32064;49.310;8.646;2023-02-03T07:10:56;101730.13;;;9.81;82.63
19736;BME280;32064;49.310;8.646;2023-02-03T07:13:21;101756.88;;;9.91;84.14
19736;BME280;32064;49.310;8.646;2023-02-03T07:15:47;101743.50;;;9.96;82.55
19736;BME280;32064;49.310;8.646;2023-02-03T07:18:12;101754.38;;;9.88;83.58
19736;BME280;32064;49.310;8.646;2023-02-03T07:20:38;101760.09;;;9.96;83.08
19736;BME280;32064;49.310;8.646;2023-02-03T07:23:03;101760.91;;;9.98;82.49
19736;BME280;32064;49.310;8.646;2023-02-03T07:25:30;101758.13;;;10.01;83.00
19736;BME280;32064;49.310;8.646;2023-02-03T07:27:55;101766.94;;;10.00;82.74
19736;BME280;32064;49.310;8.646;2023-02-03T07:30:21;101753.16;;;9.95;84.11
19736;BME280;32064;49.310;8.646;2023-02-03T07:32:47;101753.28;;;9.92;83.08
19736;BME280;32064;49.310;8.646;2023-02-03T07:35:13;101765.25;;;9.99;83.00
19736;BME280;32064;49.310;8.646;2023-02-03T07:37:39;101759.91;;;10.01;84.38
19736;BME280;32064;49.310;8.646;2023-02-03T07:40:05;101763.75;;;9.94;84.57
19736;BME280;32064;49.310;8.646;2023-02-03T07:42:30;101764.38;;;9.99;84.69
19736;BME280;32064;49.310;8.646;2023-02-03T07:44:56;101763.94;;;9.89;83.91
19736;BME280;32064;49.310;8.646;2023-02-03T07:47:21;101769.63;;;9.99;84.92
19736;BME280;32064;49.310;8.646;2023-02-03T07:49:46;101762.81;;;9.95;85.07
19736;BME280;32064;49.310;8.646;2023-02-03T07:52:12;101754.75;;;9.99;83.88
19736;BME280;32064;49.310;8.646;2023-02-03T07:54:37;101759.06;;;10.00;84.49
19736;BME280;32064;49.310;8.646;2023-02-03T07:57:03;101766.09;;;10.00;84.03
19736;BME280;32064;49.310;8.646;2023-02-03T07:59:28;101767.47;;;10.08;83.36
19736;BME280;32064;49.310;8.646;2023-02-03T08:01:53;101774.69;;;10.03;83.51
19736;BME280;32064;49.310;8.646;2023-02-03T08:04:21;101777.03;;;10.09;84.92
19736;BME280;32064;49.310;8.646;2023-02-03T08:06:46;101785.91;;;10.07;84.10
19736;BME280;32064;49.310;8.646;2023-02-03T08:09:12;101789.53;;;10.04;84.18
19736;BME280;32064;49.310;8.646;2023-02-03T08:11:37;101782.28;;;10.09;84.77
19736;BME280;32064;49.310;8.646;2023-02-03T08:14:03;101765.97;;;10.03;84.90
19736;BME280;32064;49.310;8.646;2023-02-03T08:16:28;101782.25;;;10.11;84.23
19736;BME280;32064;49.310;8.646;2023-02-03T08:18:54;101774.91;;;10.18;84.54
19736;BME280;32064;49.310;8.646;2023-02-03T08:21:19;101785.44;;;10.18;84.99
19736;BME280;32064;49.310;8.646;2023-02-03T08:23:44;101786.13;;;10.21;85.00
19736;BME280;32064;49.310;8.646;2023-02-03T08:26:10;101783.34;;;10.24;84.83
19736;BME280;32064;49.310;8.646;2023-02-03T08:28:35;101774.91;;;10.18;83.39
19736;BME280;32064;49.310;8.646;2023-02-03T08:31:00;101762.34;;;10.05;83.85
19736;BME280;32064;49.310;8.646;2023-02-03T08:33:26;101773.56;;;10.09;84.97
19736;BME280;32064;49.310;8.646;2023-02-03T08:35:53;101769.84;;;10.13;83.68
19736;BME280;32064;49.310;8.646;2023-02-03T08:38:18;101780.97;;;10.20;83.23
19736;BME280;32064;49.310;8.646;2023-02-03T08:40:46;101779.72;;;10.28;83.08
19736;BME280;32064;49.310;8.646;2023-02-03T08:43:11;101773.84;;;10.22;84.46
19736;BME280;32064;49.310;8.646;2023-02-03T08:45:38;101775.47;;;10.24;82.98
19736;BME280;32064;49.310;8.646;2023-02-03T08:48:04;101770.84;;;10.31;84.03
19736;BME280;32064;49.310;8.646;2023-02-03T08:50:29;101765.47;;;10.32;82.43
19736;BME280;32064;49.310;8.646;2023-02-03T08:52:55;101770.09;;;10.27;83.50
19736;BME280;32064;49.310;8.646;2023-02-03T08:55:20;101764.78;;;10.29;83.25
19736;BME280;32064;49.310;8.646;2023-02-03T08:57:46;101769.91;;;10.32;83.50
19736;BME280;32064;49.310;8.646;2023-02-03T09:00:11;101768.06;;;10.34;83.81
19736;BME280;32064;49.310;8.646;2023-02-03T09:02:37;101781.84;;;10.39;84.34
19736;BME280;32064;49.310;8.646;2023-02-03T09:05:03;101791.38;;;10.42;82.87
19736;BME280;32064;49.310;8.646;2023-02-03T09:07:28;101777.94;;;10.48;84.48
19736;BME280;32064;49.310;8.646;2023-02-03T09:09:53;101775.06;;;10.52;82.79
19736;BME280;32064;49.310;8.646;2023-02-03T09:12:19;101774.84;;;10.57;83.79
19736;BME280;32064;49.310;8.646;2023-02-03T09:14:44;101777.94;;;10.48;83.39
19736;BME280;32064;49.310;8.646;2023-02-03T09:17:10;101770.66;;;10.53;83.53
19736;BME280;32064;49.310;8.646;2023-02-03T09:19:35;101777.69;;;10.52;83.43
19736;BME280;32064;49.310;8.646;2023-02-03T09:22:01;101780.03;;;10.59;83.68
19736;BME280;32064;49.310;8.646;2023-02-03T09:24:27;101773.63;;;10.64;82.75
19736;BME280;32064;49.310;8.646;2023-02-03T09:26:52;101766.81;;;10.60;82.90
19736;BME280;32064;49.310;8.646;2023-02-03T09:29:18;101781.06;;;10.56;84.23
19736;BME280;32064;49.310;8.646;2023-02-03T09:31:44;101780.66;;;10.64;83.18
19736;BME280;32064;49.310;8.646;2023-02-03T09:34:11;101748.25;;;10.63;82.89
19736;BME280;32064;49.310;8.646;2023-02-03T09:36:36;101761.00;;;10.53;84.80
19736;BME280;32064;49.310;8.646;2023-02-03T09:39:03;101773.91;;;10.58;84.23
19736;BME280;32064;49.310;8.646;2023-02-03T09:41:55;101771.59;;;10.52;84.05
19736;BME280;32064;49.310;8.646;2023-02-03T09:44:34;101757.44;;;10.54;85.48
19736;BME280;32064;49.310;8.646;2023-02-03T09:47:04;101747.38;;;10.63;85.51
19736;BME280;32064;49.310;8.646;2023-02-03T09:49:39;101757.81;;;10.64;85.02
19736;BME280;32064;49.310;8.646;2023-02-03T09:52:25;101764.88;;;10.64;84.13
19736;BME280;32064;49.310;8.646;2023-02-03T09:55:03;101778.03;;;10.64;84.09
19736;BME280;32064;49.310;8.646;2023-02-03T09:57:30;101769.09;;;10.68;85.50
19736;BME280;32064;49.310;8.646;2023-02-03T10:00:02;101772.56;;;10.68;84.31
19736;BME280;32064;49.310;8.646;2023-02-03T10:05:21;101768.44;;;10.63;83.42
19736;BME280;32064;49.310;8.646;2023-02-03T10:08:01;101766.16;;;10.74;84.29
19736;BME280;32064;49.310;8.646;2023-02-03T10:10:35;101750.84;;;10.82;84.09
19736;BME280;32064;49.310;8.646;2023-02-03T10:13:33;101755.84;;;10.87;83.85
19736;BME280;32064;49.310;8.646;2023-02-03T10:16:07;101762.06;;;10.86;84.82
19736;BME280;32064;49.310;8.646;2023-02-03T10:18:47;101770.97;;;10.83;84.09
19736;BME280;32064;49.310;8.646;2023-02-03T10:23:52;101797.97;;;10.87;83.02
19736;BME280;32064;49.310;8.646;2023-02-03T10:26:25;101782.72;;;10.76;83.97
19736;BME280;32064;49.310;8.646;2023-02-03T10:29:02;101784.56;;;10.74;84.68
19736;BME280;32064;49.310;8.646;2023-02-03T10:31:34;101784.41;;;10.77;84.29
19736;BME280;32064;49.310;8.646;2023-02-03T10:34:08;101790.53;;;10.77;83.17
19736;BME280;32064;49.310;8.646;2023-02-03T10:39:30;101770.56;;;10.73;84.06
19736;BME280;32064;49.310;8.646;2023-02-03T10:41:58;101771.25;;;10.77;83.67
19736;BME280;32064;49.310;8.646;2023-02-03T10:44:30;101766.78;;;10.79;83.83
19736;BME280;32064;49.310;8.646;2023-02-03T10:46:59;101757.63;;;10.86;84.91
19736;BME280;32064;49.310;8.646;2023-02-03T10:49:26;101753.25;;;11.04;82.98
19736;BME280;32064;49.310;8.646;2023-02-03T10:51:56;101746.34;;;11.19;83.88
19736;BME280;32064;49.310;8.646;2023-02-03T10:54:35;101745.56;;;11.17;83.07
19736;BME280;32064;49.310;8.646;2023-02-03T10:57:05;101748.00;;;11.21;82.89
19736;BME280;32064;49.310;8.646;2023-02-03T10:59:36;101733.34;;;11.16;84.06
19736;BME280;32064;49.310;8.646;2023-02-03T11:02:19;101725.28;;;11.19;82.61
19736;BME280;32064;49.310;8.646;2023-02-03T11:04:45;101723.56;;;11.18;83.28
19736;BME280;32064;49.310;8.646;2023-02-03T11:07:23;101730.72;;;11.16;82.02
19736;BME280;32064;49.310;8.646;2023-02-03T11:09:49;101723.88;;;11.12;82.22
19736;BME280;32064;49.310;8.646;2023-02-03T11:12:17;101721.72;;;11.02;82.60
19736;BME280;32064;49.310;8.646;2023-02-03T11:14:45;101718.00;;;11.07;81.77
19736;BME280;32064;49.310;8.646;2023-02-03T11:17:16;101713.03;;;11.00;82.98
19736;BME280;32064;49.310;8.646;2023-02-03T11:19:45;101714.91;;;10.98;83.45
19736;BME280;32064;49.310;8.646;2023-02-03T11:22:13;101707.56;;;11.05;81.71
19736;BME280;32064;49.310;8.646;2023-02-03T11:24:50;101703.28;;;11.02;82.73
19736;BME280;32064;49.310;8.646;2023-02-03T11:27:16;101696.22;;;11.03;82.28
19736;BME280;32064;49.310;8.646;2023-02-03T11:29:45;101711.88;;;11.06;82.02
19736;BME280;32064;49.310;8.646;2023-02-03T11:32:16;101716.78;;;10.96;81.13
19736;BME280;32064;49.310;8.646;2023-02-03T11:34:56;101720.03;;;11.01;83.41
19736;BME280;32064;49.310;8.646;2023-02-03T11:40:40;101711.88;;;11.06;82.59
19736;BME280;32064;49.310;8.646;2023-02-03T11:42:57;101709.81;;;11.13;80.91
19736;BME280;32064;49.310;8.646;2023-02-03T11:50:54;101711.50;;;10.96;82.85
19736;BME280;32064;49.310;8.646;2023-02-03T11:53:28;101724.19;;;11.06;81.28
19736;BME280;32064;49.310;8.646;2023-02-03T12:04:17;101737.84;;;10.96;80.24
19736;BME280;32064;49.310;8.646;2023-02-03T12:23:47;101677.25;;;11.14;78.38
19736;BME280;32064;49.310;8.646;2023-02-03T12:26:22;101671.75;;;11.18;79.10
19736;BME280;32064;49.310;8.646;2023-02-03T12:28:55;101669.97;;;11.19;80.73
19736;BME280;32064;49.310;8.646;2023-02-03T12:34:12;101644.31;;;11.22;78.42
19736;BME280;32064;49.310;8.646;2023-02-03T12:36:48;101640.84;;;11.22;79.86
19736;BME280;32064;49.310;8.646;2023-02-03T12:39:47;101642.78;;;11.18;79.34
19736;BME280;32064;49.310;8.646;2023-02-03T12:42:12;101634.63;;;11.23;79.13
19736;BME280;32064;49.310;8.646;2023-02-03T12:44:49;101638.19;;;11.22;78.53
19736;BME280;32064;49.310;8.646;2023-02-03T12:49:46;101652.66;;;11.31;78.89
19736;BME280;32064;49.310;8.646;2023-02-03T12:52:26;101644.84;;;11.29;78.65
19736;BME280;32064;49.310;8.646;2023-02-03T12:55:02;101650.25;;;11.26;78.84
19736;BME280;32064;49.310;8.646;2023-02-03T12:57:43;101644.41;;;11.21;77.94
19736;BME280;32064;49.310;8.646;2023-02-03T13:00:36;101648.91;;;11.19;78.08
19736;BME280;32064;49.310;8.646;2023-02-03T13:03:16;101631.66;;;11.29;76.52
19736;BME280;32064;49.310;8.646;2023-02-03T13:05:47;101624.13;;;11.39;77.79
19736;BME280;32064;49.310;8.646;2023-02-03T13:08:30;101604.50;;;11.44;78.19
19736;BME280;32064;49.310;8.646;2023-02-03T13:11:11;101619.13;;;11.50;76.33
19736;BME280;32064;49.310;8.646;2023-02-03T13:16:42;101592.53;;;11.71;77.76
19736;BME280;32064;49.310;8.646;2023-02-03T13:19:16;101577.13;;;11.79;75.79
19736;BME280;32064;49.310;8.646;2023-02-03T13:21:42;101571.47;;;11.86;77.50
19736;BME280;32064;49.310;8.646;2023-02-03T13:24:10;101574.53;;;11.95;76.56
19736;BME280;32064;49.310;8.646;2023-02-03T13:26:49;101567.88;;;12.03;75.18
19736;BME280;32064;49.310;8.646;2023-02-03T13:29:41;101569.63;;;12.03;74.74
19736;BME280;32064;49.310;8.646;2023-02-03T13:41:16;101563.28;;;12.07;75.32
19736;BME280;32064;49.310;8.646;2023-02-03T13:43:45;101568.38;;;12.10;74.81
19736;BME280;32064;49.310;8.646;2023-02-03T13:46:21;101571.00;;;12.10;75.19
19736;BME280;32064;49.310;8.646;2023-02-03T13:48:48;101570.41;;;12.05;75.03
19736;BME280;32064;49.310;8.646;2023-02-03T13:51:19;101568.19;;;11.97;75.41
19736;BME280;32064;49.310;8.646;2023-02-03T13:53:46;101568.31;;;11.96;74.30
19736;BME280;32064;49.310;8.646;2023-02-03T13:56:23;101584.38;;;11.91;75.75
19736;BME280;32064;49.310;8.646;2023-02-03T13:59:01;101572.53;;;11.82;74.92
19736;BME280;32064;49.310;8.646;2023-02-03T14:01:31;101570.91;;;11.80;75.37
19736;BME280;32064;49.310;8.646;2023-02-03T14:04:02;101581.16;;;11.86;75.33
19736;BME280;32064;49.310;8.646;2023-02-03T14:09:00;101566.34;;;11.83;74.37
19736;BME280;32064;49.310;8.646;2023-02-03T14:16:48;101601.72;;;11.79;74.72
19736;BME280;32064;49.310;8.646;2023-02-03T14:21:49;101617.22;;;11.85;74.83
19736;BME280;32064;49.310;8.646;2023-02-03T14:24:16;101616.19;;;11.88;75.60
19736;BME280;32064;49.310;8.646;2023-02-03T14:26:46;101618.47;;;11.78;76.00
19736;BME280;32064;49.310;8.646;2023-02-03T14:32:02;101641.94;;;11.67;75.66
19736;BME280;32064;49.310;8.646;2023-02-03T14:34:30;101633.19;;;11.66;76.47